createdAt,value
2019-04-05T00:00:55.656Z,81.92
2019-04-05T00:03:25.473Z,82.07
2019-04-05T00:05:55.275Z,82.17
2019-04-05T00:08:26.177Z,82.39
2019-04-05T00:10:56.286Z,82.47
2019-04-05T00:13:26.444Z,82.42
2019-04-05T00:15:56.681Z,82.32
2019-04-05T00:18:26.536Z,82.25
2019-04-05T00:20:56.682Z,82.26
2019-04-05T00:23:26.592Z,82.35
2019-04-05T00:25:58.201Z,82.63
2019-04-05T00:28:28.193Z,82.88
2019-04-05T00:30:58.307Z,82.88
2019-04-05T00:33:28.224Z,82.85
2019-04-05T00:36:02.629Z,82.87
2019-04-05T00:38:32.457Z,83.01
2019-04-05T00:41:02.294Z,83.13
2019-04-05T00:43:33.544Z,83.08
2019-04-05T00:46:03.571Z,83.05
2019-04-05T00:48:33.432Z,83.24
2019-04-05T00:51:04.024Z,83.39
2019-04-05T00:53:34.314Z,83.36
2019-04-05T00:56:05.773Z,83.44
2019-04-05T00:58:35.608Z,83.46
2019-04-05T01:01:06.183Z,83.59
2019-04-05T01:03:35.992Z,83.59
2019-04-05T01:06:06.314Z,83.84
2019-04-05T01:08:36.199Z,83.84
2019-04-05T01:11:06.167Z,83.70
2019-04-05T01:13:37.982Z,83.69
2019-04-05T01:16:08.239Z,83.76
2019-04-05T01:18:38.058Z,83.80
2019-04-05T01:21:10.942Z,83.98
2019-04-05T01:23:41.206Z,83.94
2019-04-05T01:26:12.726Z,83.93
2019-04-05T01:28:42.732Z,84.17
2019-04-05T01:31:12.990Z,84.32
2019-04-05T01:33:42.874Z,84.27
2019-04-05T01:36:12.955Z,84.15
2019-04-05T01:38:42.847Z,83.95
2019-04-05T01:41:12.884Z,83.94
2019-04-05T01:43:43.205Z,83.92
2019-04-05T01:46:13.561Z,83.99
2019-04-05T01:48:43.370Z,83.94
2019-04-05T01:51:14.437Z,83.96
2019-04-05T01:53:44.534Z,84.13
2019-04-05T01:56:14.733Z,84.25
2019-04-05T01:58:44.690Z,84.34
2019-04-05T02:01:15.166Z,84.29
2019-04-05T02:03:45.099Z,84.20
2019-04-05T02:06:15.609Z,84.24
2019-04-05T02:08:45.848Z,84.36
2019-04-05T02:11:15.824Z,84.45
2019-04-05T02:13:45.772Z,84.45
2019-04-05T02:16:15.970Z,84.49
2019-04-05T02:18:46.178Z,84.75
2019-04-05T02:21:16.353Z,84.75
2019-04-05T02:23:46.378Z,84.85
2019-04-05T02:26:16.677Z,84.99
2019-04-05T02:28:47.142Z,85.02
2019-04-05T02:31:17.553Z,85.04
2019-04-05T02:33:47.538Z,85.10
2019-04-05T02:36:18.374Z,85.12
2019-04-05T02:38:48.248Z,84.99
2019-04-05T02:41:19.313Z,85.05
2019-04-05T02:43:51.634Z,85.14
2019-04-05T02:46:24.332Z,85.15
2019-04-05T02:48:55.824Z,85.11
2019-04-05T02:51:28.203Z,85.20
2019-04-05T02:53:59.986Z,85.10
2019-04-05T02:56:31.162Z,85.09
2019-04-05T02:59:02.207Z,84.97
2019-04-05T03:01:34.975Z,84.91
2019-04-05T03:04:05.736Z,84.72
2019-04-05T03:06:35.973Z,84.60
2019-04-05T03:09:07.297Z,84.55
2019-04-05T03:11:39.497Z,84.45
2019-04-05T03:14:11.324Z,84.35
2019-04-05T03:16:44.177Z,84.33
2019-04-05T03:19:20.861Z,84.31
2019-04-05T03:21:53.814Z,84.43
2019-04-05T03:24:27.342Z,84.53
2019-04-05T03:27:05.120Z,84.55
2019-04-05T03:29:35.586Z,84.74
2019-04-05T03:32:07.137Z,84.82
2019-04-05T03:34:35.791Z,84.94
2019-04-05T03:37:04.617Z,85.08
2019-04-05T03:39:33.233Z,85.25
2019-04-05T03:42:02.108Z,85.31
2019-04-05T03:44:32.493Z,85.42
2019-04-05T03:47:02.889Z,85.53
2019-04-05T03:49:34.584Z,85.60
2019-04-05T03:52:07.763Z,85.71
2019-04-05T03:54:37.853Z,85.85
2019-04-05T03:57:08.787Z,85.88
2019-04-05T03:59:38.854Z,85.90
2019-04-05T04:02:09.052Z,86.07
2019-04-05T04:04:38.919Z,86.07
2019-04-05T04:07:08.925Z,86.04
2019-04-05T04:09:39.223Z,86.02
2019-04-05T04:12:09.128Z,86.16
2019-04-05T04:14:40.176Z,86.10
2019-04-05T04:17:13.409Z,86.10
2019-04-05T04:19:44.348Z,85.60
2019-04-05T04:22:31.200Z,86.10
2019-04-05T04:25:01.745Z,86.10
2019-04-05T04:27:32.111Z,85.87
2019-04-05T04:30:02.577Z,85.94
2019-04-05T04:32:34.248Z,86.01
2019-04-05T04:35:06.563Z,86.08
2019-04-05T04:37:36.531Z,86.04
2019-04-05T04:40:07.266Z,85.97
2019-04-05T04:42:37.784Z,86.15
2019-04-05T04:45:12.294Z,86.12
2019-04-05T04:47:40.146Z,86.11
2019-04-05T04:50:12.280Z,86.13
2019-04-05T04:52:43.037Z,86.15
2019-04-05T04:55:14.200Z,86.17
2019-04-05T04:57:44.415Z,86.17
2019-04-05T05:00:14.692Z,86.32
2019-04-05T05:02:45.421Z,86.30
2019-04-05T05:05:14.203Z,86.29
2019-04-05T05:07:42.638Z,86.38
2019-04-05T05:10:11.391Z,86.26
2019-04-05T05:12:40.041Z,86.43
2019-04-05T05:15:12.683Z,86.74
2019-04-05T05:17:43.171Z,86.89
2019-04-05T05:20:13.869Z,86.87
2019-04-05T05:22:43.976Z,86.94
2019-04-05T05:25:14.635Z,87.04
2019-04-05T05:27:45.218Z,87.03
2019-04-05T05:30:15.121Z,86.97
2019-04-05T05:32:45.151Z,86.84
2019-04-05T05:35:15.529Z,86.84
2019-04-05T05:37:45.688Z,86.77
2019-04-05T05:40:16.606Z,86.75
2019-04-05T05:42:46.496Z,86.98
2019-04-05T05:45:17.051Z,87.00
2019-04-05T05:47:52.226Z,86.99
2019-04-05T05:50:19.031Z,86.90
2019-04-05T05:52:49.592Z,86.90
2019-04-05T05:55:20.749Z,86.83
2019-04-05T05:57:54.336Z,86.81
2019-04-05T06:00:24.782Z,86.80
2019-04-05T06:02:54.616Z,86.76
2019-04-05T06:05:24.572Z,86.74
2019-04-05T06:07:54.481Z,86.72
2019-04-05T06:10:24.944Z,86.70
2019-04-05T06:12:54.760Z,86.67
2019-04-05T06:15:24.564Z,86.64
2019-04-05T06:18:04.498Z,86.51
2019-04-05T06:20:26.449Z,86.54
2019-04-05T06:22:56.507Z,86.48
2019-04-05T06:25:26.424Z,86.47
2019-04-05T06:27:59.765Z,86.50
2019-04-05T06:30:29.153Z,86.52
2019-04-05T06:33:00.310Z,86.44
2019-04-05T06:35:30.289Z,86.43
2019-04-05T06:38:00.287Z,86.38
2019-04-05T06:40:40.227Z,86.27
2019-04-05T06:43:01.925Z,86.34
2019-04-05T06:45:32.283Z,86.42
2019-04-05T06:48:02.399Z,86.50
2019-04-05T06:50:32.420Z,86.67
2019-04-05T06:53:02.270Z,86.61
2019-04-05T06:55:32.354Z,86.43
2019-04-05T06:58:02.641Z,86.53
2019-04-05T07:00:32.656Z,86.60
2019-04-05T07:03:02.481Z,86.53
2019-04-05T07:05:32.617Z,86.61
2019-04-05T07:08:02.770Z,86.43
2019-04-05T07:10:32.582Z,86.61
2019-04-05T07:13:02.658Z,86.65
2019-04-05T07:15:32.489Z,86.53
2019-04-05T07:18:02.294Z,86.59
2019-04-05T07:20:32.103Z,86.53
2019-04-05T07:23:01.914Z,86.63
2019-04-05T07:25:31.738Z,86.55
2019-04-05T07:28:01.705Z,86.47
2019-04-05T07:30:32.730Z,86.48
2019-04-05T07:33:03.001Z,86.31
2019-04-05T07:35:34.171Z,86.25
2019-04-05T07:38:05.760Z,86.27
2019-04-05T07:40:34.306Z,86.09
2019-04-05T07:43:02.734Z,85.95
2019-04-05T07:45:31.165Z,85.98
2019-04-05T07:47:59.595Z,86.26
2019-04-05T07:50:28.124Z,86.30
2019-04-05T07:52:57.041Z,86.17
2019-04-05T07:55:26.887Z,86.17
2019-04-05T07:57:56.771Z,85.94
2019-04-05T08:00:51.477Z,85.61
2019-04-05T08:03:22.435Z,85.54
2019-04-05T08:05:54.303Z,85.38
2019-04-05T08:08:37.077Z,84.91
2019-04-05T08:11:08.525Z,84.79
2019-04-05T08:13:41.565Z,85.15
2019-04-05T08:16:11.684Z,84.90
2019-04-05T08:18:41.601Z,84.57
2019-04-05T08:21:11.723Z,84.62
2019-04-05T08:23:42.334Z,84.62
2019-04-05T08:26:12.434Z,83.81
2019-04-05T08:28:42.592Z,83.72
2019-04-05T08:31:14.519Z,83.27
2019-04-05T08:33:44.130Z,82.89
2019-04-05T08:36:14.239Z,82.17
2019-04-05T08:38:44.096Z,81.50
2019-04-05T08:41:15.152Z,81.14
2019-04-05T08:43:47.194Z,80.53
2019-04-05T08:46:17.791Z,80.93
2019-04-05T08:48:47.806Z,81.57
2019-04-05T08:51:17.584Z,80.20
2019-04-05T08:53:47.712Z,79.66
2019-04-05T08:56:18.647Z,79.91
2019-04-05T08:58:48.464Z,79.33
2019-04-05T09:01:18.567Z,79.48
2019-04-05T09:03:48.597Z,79.06
2019-04-05T09:06:18.696Z,78.52
2019-04-05T09:08:48.493Z,78.76
2019-04-05T09:11:18.570Z,77.97
2019-04-05T09:13:49.814Z,77.97
2019-04-05T09:16:19.649Z,77.52
2019-04-05T09:18:49.757Z,78.48
2019-04-05T09:21:19.652Z,78.00
2019-04-05T09:23:48.071Z,77.31
2019-04-05T09:26:17.678Z,77.56
2019-04-05T09:28:46.564Z,77.98
2019-04-05T09:31:16.594Z,78.36
2019-04-05T09:33:46.422Z,78.30
2019-04-05T09:36:16.775Z,78.22
2019-04-05T09:38:46.888Z,78.54
2019-04-05T09:41:16.846Z,79.00
2019-04-05T09:43:46.799Z,78.06
2019-04-05T09:46:16.896Z,78.06
2019-04-05T09:48:46.700Z,78.20
2019-04-05T09:51:16.510Z,79.69
2019-04-05T09:53:46.333Z,79.69
2019-04-05T09:56:16.463Z,80.09
2019-04-05T09:58:46.630Z,80.08
2019-04-05T10:01:16.747Z,80.23
2019-04-05T10:03:46.705Z,79.84
2019-04-05T10:06:16.899Z,79.27
2019-04-05T10:08:46.744Z,79.67
2019-04-05T10:11:16.691Z,79.67
2019-04-05T10:13:46.571Z,78.89
2019-04-05T10:16:16.447Z,78.61
2019-04-05T10:18:47.205Z,78.60
2019-04-05T10:21:18.256Z,78.41
2019-04-05T10:23:48.187Z,78.38
2019-04-05T10:26:18.286Z,78.18
2019-04-05T10:28:48.336Z,78.06
2019-04-05T10:31:18.679Z,77.99
2019-04-05T10:33:49.595Z,77.83
2019-04-05T10:36:20.177Z,77.62
2019-04-05T10:38:50.068Z,77.44
2019-04-05T10:41:22.792Z,76.56
2019-04-05T10:43:51.448Z,76.34
2019-04-05T10:46:21.474Z,76.76
2019-04-05T10:48:51.471Z,77.34
2019-04-05T10:51:21.779Z,77.04
2019-04-05T10:53:51.984Z,76.39
2019-04-05T10:56:21.795Z,76.88
2019-04-05T10:58:51.619Z,76.69
2019-04-05T11:01:21.738Z,76.64
2019-04-05T11:03:51.562Z,76.32
2019-04-05T11:06:21.833Z,76.23
2019-04-05T11:08:51.676Z,75.94
2019-04-05T11:11:21.781Z,75.14
2019-04-05T11:13:51.625Z,75.27
2019-04-05T11:16:23.051Z,75.55
2019-04-05T11:18:53.149Z,75.27
2019-04-05T11:21:22.976Z,75.07
2019-04-05T11:23:53.612Z,75.07
2019-04-05T11:26:24.530Z,74.52
2019-04-05T11:28:54.359Z,74.30
2019-04-05T11:31:24.478Z,74.85
2019-04-05T11:33:54.934Z,74.78
2019-04-05T11:36:25.409Z,75.02
2019-04-05T11:38:56.863Z,74.83
2019-04-05T11:41:28.327Z,75.03
2019-04-05T11:44:00.832Z,74.92
2019-04-05T11:46:32.723Z,74.93
2019-04-05T11:49:04.466Z,74.55
2019-04-05T11:51:34.548Z,74.22
2019-04-05T11:54:05.862Z,74.34
2019-04-05T11:56:35.691Z,74.49
2019-04-05T11:59:08.960Z,74.19
2019-04-05T12:01:49.575Z,74.49
2019-04-05T12:04:19.563Z,73.09
2019-04-05T12:06:51.776Z,73.61
2019-04-05T12:09:20.928Z,73.57
2019-04-05T12:11:50.743Z,73.36
2019-04-05T12:14:30.045Z,73.58
2019-04-05T12:16:53.163Z,74.20
2019-04-05T12:19:23.286Z,74.24
2019-04-05T12:21:53.254Z,73.98
2019-04-05T12:24:23.203Z,73.05
2019-04-05T12:26:53.312Z,73.07
2019-04-05T12:29:22.734Z,72.90
2019-04-05T12:31:53.405Z,72.98
2019-04-05T12:34:22.397Z,72.20
2019-04-05T12:36:52.694Z,71.73
2019-04-05T12:39:21.345Z,71.92
2019-04-05T12:41:50.108Z,71.99
2019-04-05T12:44:18.682Z,71.22
2019-04-05T12:46:48.590Z,71.67
2019-04-05T12:49:18.669Z,71.57
2019-04-05T12:51:48.499Z,71.45
2019-04-05T12:54:19.659Z,71.49
2019-04-05T12:56:49.667Z,70.45
2019-04-05T12:59:19.702Z,70.31
2019-04-05T13:01:49.540Z,70.23
2019-04-05T13:04:20.630Z,69.99
2019-04-05T13:06:52.950Z,69.31
2019-04-05T13:09:23.549Z,69.52
2019-04-05T13:11:57.296Z,69.81
2019-04-05T13:14:26.972Z,69.86
2019-04-05T13:16:57.132Z,70.25
2019-04-05T13:19:28.513Z,70.13
2019-04-05T13:22:00.670Z,70.31
2019-04-05T13:24:30.370Z,70.51
2019-04-05T13:27:02.093Z,70.85
2019-04-05T13:29:32.197Z,70.41
2019-04-05T13:32:02.024Z,70.21
2019-04-05T13:34:31.839Z,70.19
2019-04-05T13:37:02.008Z,70.42
2019-04-05T13:39:31.794Z,70.58
2019-04-05T13:42:02.474Z,70.22
2019-04-05T13:44:32.553Z,69.34
2019-04-05T13:47:01.199Z,69.80
2019-04-05T13:49:29.637Z,69.30
2019-04-05T13:51:58.206Z,69.21
2019-04-05T13:54:28.398Z,69.12
2019-04-05T13:56:58.255Z,69.17
2019-04-05T13:59:28.526Z,69.29
2019-04-05T14:02:06.085Z,69.04
2019-04-05T14:04:30.950Z,69.25
2019-04-05T14:07:03.581Z,69.16
2019-04-05T14:09:32.614Z,68.62
2019-04-05T14:12:02.506Z,68.38
2019-04-05T14:14:32.331Z,68.74
2019-04-05T14:17:02.226Z,69.69
2019-04-05T14:19:32.548Z,70.14
2019-04-05T14:22:08.290Z,70.52
2019-04-05T14:24:34.322Z,70.32
2019-04-05T14:27:04.308Z,70.19
2019-04-05T14:29:34.119Z,70.38
2019-04-05T14:32:19.852Z,70.61
2019-04-05T14:34:37.260Z,70.58
2019-04-05T14:37:08.363Z,71.12
2019-04-05T14:39:38.416Z,71.12
2019-04-05T14:42:09.892Z,70.76
2019-04-05T14:44:40.139Z,70.84
2019-04-05T14:47:10.266Z,70.37
2019-04-05T14:49:40.334Z,70.37
2019-04-05T14:52:10.546Z,70.88
2019-04-05T14:54:43.164Z,71.03
2019-04-05T14:57:12.565Z,71.31
2019-04-05T14:59:42.435Z,71.41
2019-04-05T15:02:12.560Z,71.37
2019-04-05T15:04:42.576Z,71.63
2019-04-05T15:07:12.718Z,72.39
2019-04-05T15:09:42.525Z,72.39
2019-04-05T15:12:12.503Z,72.09
2019-04-05T15:14:42.351Z,72.19
2019-04-05T15:17:12.464Z,72.49
2019-04-05T15:19:42.480Z,72.66
2019-04-05T15:22:12.605Z,72.85
2019-04-05T15:24:44.585Z,73.03
2019-04-05T15:27:14.751Z,73.13
2019-04-05T15:29:44.560Z,73.33
2019-04-05T15:32:14.568Z,73.33
2019-04-05T15:34:44.649Z,73.31
2019-04-05T15:37:16.238Z,73.31
2019-04-05T15:39:47.155Z,73.32
2019-04-05T15:42:16.958Z,73.27
2019-04-05T15:44:46.979Z,73.42
2019-04-05T15:47:16.788Z,73.62
2019-04-05T15:49:46.585Z,73.81
2019-04-05T15:52:19.079Z,73.93
2019-04-05T15:54:48.494Z,74.02
2019-04-05T15:57:18.616Z,74.04
2019-04-05T15:59:48.598Z,74.33
2019-04-05T16:02:19.050Z,74.43
2019-04-05T16:04:49.010Z,74.67
2019-04-05T16:07:18.899Z,74.73
2019-04-05T16:09:48.788Z,74.62
2019-04-05T16:12:18.701Z,74.64
2019-04-05T16:14:48.521Z,74.66
2019-04-05T16:17:18.632Z,74.74
2019-04-05T16:19:48.580Z,74.84
2019-04-05T16:22:30.635Z,75.05
2019-04-05T16:24:50.168Z,74.90
2019-04-05T16:27:20.446Z,74.90
2019-04-05T16:29:50.293Z,75.32
2019-04-05T16:32:22.056Z,75.39
2019-04-05T16:34:51.866Z,75.47
2019-04-05T16:37:21.783Z,75.47
2019-04-05T16:39:51.692Z,75.60
2019-04-05T16:42:22.055Z,75.55
2019-04-05T16:44:51.863Z,75.77
2019-04-05T16:47:21.920Z,75.86
2019-04-05T16:49:51.735Z,75.87
2019-04-05T16:52:21.773Z,75.91
2019-04-05T16:54:51.576Z,75.86
2019-04-05T16:57:21.696Z,75.98
2019-04-05T16:59:51.692Z,75.98
2019-04-05T17:02:21.581Z,75.91
2019-04-05T17:04:51.386Z,76.01
2019-04-05T17:07:21.709Z,76.15
2019-04-05T17:09:51.509Z,76.19
2019-04-05T17:12:21.721Z,76.18
2019-04-05T17:14:51.588Z,76.36
2019-04-05T17:17:21.740Z,76.34
2019-04-05T17:19:52.730Z,76.59
2019-04-05T17:22:22.879Z,76.69
2019-04-05T17:24:53.065Z,76.89
2019-04-05T17:27:23.419Z,76.85
2019-04-05T17:29:53.431Z,76.86
2019-04-05T17:32:23.684Z,77.21
2019-04-05T17:34:53.623Z,77.25
2019-04-05T17:37:26.495Z,77.41
2019-04-05T17:39:55.600Z,77.39
2019-04-05T17:42:25.566Z,77.43
2019-04-05T17:44:55.646Z,77.50
2019-04-05T17:47:25.548Z,77.59
2019-04-05T17:49:55.517Z,77.56
2019-04-05T17:52:25.466Z,77.77
2019-04-05T17:54:55.865Z,77.91
2019-04-05T17:57:25.676Z,77.84
2019-04-05T17:59:55.671Z,77.83
2019-04-05T18:02:26.264Z,77.94
2019-04-05T18:04:56.345Z,78.05
2019-04-05T18:07:26.505Z,78.28
2019-04-05T18:09:56.415Z,78.20
2019-04-05T18:14:55.651Z,78.22
2019-04-05T18:17:25.480Z,78.25
2019-04-05T18:19:55.382Z,78.32
2019-04-05T18:22:25.366Z,78.36
2019-04-05T18:24:55.421Z,78.40
2019-04-05T18:27:25.606Z,78.39
2019-04-05T18:29:55.605Z,78.56
2019-04-05T18:32:25.423Z,78.63
2019-04-05T18:34:55.474Z,78.78
2019-04-05T18:37:26.442Z,78.84
2019-04-05T18:39:57.526Z,78.96
2019-04-05T18:42:27.434Z,78.98
2019-04-05T18:44:57.546Z,78.99
2019-04-05T18:47:28.048Z,78.95
2019-04-05T18:50:03.207Z,78.83
2019-04-05T18:52:29.669Z,78.78
2019-04-05T18:54:59.548Z,78.82
2019-04-05T18:57:29.847Z,79.13
2019-04-05T18:59:59.658Z,79.62
2019-04-05T19:02:29.922Z,79.82
2019-04-05T19:04:59.738Z,80.03
2019-04-05T19:07:29.623Z,80.20
2019-04-05T19:10:00.027Z,80.28
2019-04-05T19:12:29.884Z,80.43
2019-04-05T19:14:59.818Z,80.48
2019-04-05T19:17:29.882Z,80.48
2019-04-05T19:19:59.683Z,80.44
2019-04-05T19:22:28.695Z,80.40
2019-04-05T19:24:58.756Z,80.59
2019-04-05T19:27:28.558Z,80.82
2019-04-05T19:29:58.750Z,80.83
2019-04-05T19:50:01.896Z,81.06
2019-04-05T19:52:30.322Z,81.21
2019-04-05T19:55:00.426Z,81.40
2019-04-05T19:57:30.450Z,81.57
2019-04-05T20:00:00.531Z,81.58
2019-04-05T20:02:30.358Z,81.61
2019-04-05T20:05:00.238Z,81.61
2019-04-05T20:07:30.254Z,81.56
2019-04-05T20:10:00.353Z,81.60
2019-04-05T20:12:30.438Z,81.66
2019-04-05T20:15:00.240Z,81.83
2019-04-05T20:17:30.057Z,81.83
2019-04-05T20:19:59.874Z,81.93
2019-04-05T20:22:30.002Z,81.98
2019-04-05T20:24:59.802Z,82.00
2019-04-05T20:27:29.617Z,81.89
2019-04-05T20:29:59.445Z,81.85
2019-04-05T20:32:29.541Z,81.73
2019-04-05T20:34:59.605Z,81.74
2019-04-05T20:37:29.418Z,81.86
2019-04-05T20:39:59.511Z,81.86
2019-04-05T20:42:29.598Z,81.99
2019-04-05T20:44:59.402Z,81.95
2019-04-05T20:47:28.880Z,82.09
2019-04-05T20:49:57.815Z,82.26
2019-04-05T20:52:27.843Z,82.35
2019-04-05T20:54:58.107Z,82.43
2019-04-05T20:57:28.477Z,82.50
2019-04-05T20:59:58.598Z,82.69
2019-04-05T21:02:28.401Z,82.66
2019-04-05T21:04:59.562Z,82.62
2019-04-05T21:07:29.506Z,82.78
2019-04-05T21:09:59.599Z,83.05
2019-04-05T21:12:30.380Z,83.31
2019-04-05T21:15:00.243Z,83.32
2019-04-05T21:17:30.327Z,83.45
2019-04-05T21:20:00.405Z,83.53
2019-04-05T21:22:30.470Z,83.63
2019-04-05T21:25:00.509Z,83.62
2019-04-05T21:27:30.572Z,83.76
2019-04-05T21:30:00.420Z,83.68
2019-04-05T21:32:30.294Z,83.74
2019-04-05T21:35:02.547Z,83.77
2019-04-05T21:37:32.736Z,83.80
2019-04-05T21:40:02.680Z,83.64
2019-04-05T21:42:32.688Z,83.60
2019-04-05T21:45:02.560Z,83.61
2019-04-05T21:47:32.429Z,83.52
2019-04-05T21:50:02.653Z,83.52
2019-04-05T21:52:32.529Z,83.52
2019-04-05T21:55:02.617Z,83.47
2019-04-05T21:57:32.716Z,83.51
2019-04-05T22:00:03.052Z,83.61
2019-04-05T22:02:34.558Z,83.74
2019-04-05T22:05:06.647Z,84.02
2019-04-05T22:07:36.529Z,84.10
2019-04-05T22:10:06.778Z,83.95
2019-04-05T22:12:37.550Z,83.66
2019-04-05T22:15:07.876Z,83.46
2019-04-05T22:17:38.132Z,83.33
2019-04-05T22:20:09.802Z,83.24
2019-04-05T22:22:39.934Z,83.29
2019-04-05T22:25:09.889Z,83.37
2019-04-05T22:27:40.085Z,83.46
2019-04-05T22:30:10.788Z,83.62
2019-04-05T22:32:40.783Z,83.76
2019-04-05T22:35:10.813Z,83.67
2019-04-05T22:37:40.816Z,83.58
2019-04-05T22:40:11.134Z,83.58
2019-04-05T22:42:41.058Z,83.69
2019-04-05T22:45:11.438Z,83.49
2019-04-05T22:47:41.732Z,83.44
2019-04-05T22:50:12.181Z,83.34
2019-04-05T22:52:42.283Z,83.27
2019-04-05T22:55:12.621Z,82.97
2019-04-05T22:57:42.870Z,82.97
2019-04-05T23:00:12.886Z,83.13
2019-04-05T23:02:44.698Z,83.06
2019-04-05T23:05:15.305Z,83.07
2019-04-05T23:07:45.378Z,82.99
2019-04-05T23:10:16.416Z,82.93
2019-04-05T23:12:46.468Z,82.92
2019-04-05T23:15:16.728Z,82.83
2019-04-05T23:17:46.709Z,82.78
2019-04-05T23:20:17.352Z,82.64
2019-04-05T23:22:47.980Z,82.57
2019-04-05T23:25:22.155Z,82.47
2019-04-05T23:27:49.583Z,82.69
2019-04-05T23:30:20.754Z,82.85
2019-04-05T23:32:50.643Z,83.22
2019-04-05T23:35:20.819Z,83.33
2019-04-05T23:37:50.720Z,83.38
2019-04-05T23:40:20.959Z,83.64
2019-04-05T23:42:50.847Z,83.67
2019-04-05T23:45:21.079Z,83.83
2019-04-05T23:47:50.966Z,83.90
2019-04-05T23:50:21.426Z,83.98
2019-04-05T23:52:51.635Z,84.25
2019-04-05T23:55:32.507Z,84.57
2019-04-05T23:57:53.453Z,84.94
